Time;durP1;ratioP1;P1;durP2;ratioP2;P2;SDS_P1;SDS_P2;PMS_P1;PMS_P2;Temp;Humidity;BMP_temperature;BMP_pressure;BME280_temperature;BME280_humidity;BME280_pressure;Samples;Min_cycle;Max_cycle;Signal;HPM_P1;HPM_P2
2022/06/07 00:00:39;;;;;;;12.68;11.35;;;12.20;99.90;;;;;;4981258;28;89387;-37
2022/06/07 00:03:05;;;;;;;11.50;10.25;;;12.20;99.90;;;;;;4980827;28;89791;-35
2022/06/07 00:05:30;;;;;;;13.38;11.98;;;12.20;99.90;;;;;;4981034;28;90777;-34
2022/06/07 00:07:56;;;;;;;15.52;13.25;;;12.20;99.90;;;;;;4980120;28;89336;-35
2022/06/07 00:10:23;;;;;;;15.20;13.70;;;12.20;99.90;;;;;;4980549;28;89748;-34
2022/06/07 00:12:49;;;;;;;13.52;12.18;;;12.20;99.90;;;;;;4980709;28;89374;-33
2022/06/07 00:15:15;;;;;;;15.55;12.70;;;12.30;99.90;;;;;;4981567;28;90126;-34
2022/06/07 00:17:41;;;;;;;16.00;13.85;;;12.20;99.90;;;;;;4980646;28;88375;-36
2022/06/07 00:20:08;;;;;;;20.00;14.13;;;12.30;99.90;;;;;;4981086;28;90306;-34
2022/06/07 00:22:35;;;;;;;13.90;12.27;;;12.20;99.90;;;;;;4979420;28;89348;-35
2022/06/07 00:25:01;;;;;;;19.95;14.38;;;12.30;99.90;;;;;;4980882;28;89637;-32
2022/06/07 00:27:27;;;;;;;19.60;13.15;;;12.20;99.90;;;;;;4981304;28;89668;-37
2022/06/07 00:29:53;;;;;;;20.58;16.33;;;12.30;99.90;;;;;;4980290;28;90424;-35
2022/06/07 00:32:20;;;;;;;20.33;16.33;;;12.30;99.90;;;;;;4979799;28;90331;-34
2022/06/07 00:34:47;;;;;;;15.50;14.03;;;12.20;99.90;;;;;;4979896;28;90619;-38
2022/06/07 00:37:13;;;;;;;16.13;14.40;;;12.30;99.90;;;;;;4981259;28;88444;-35
2022/06/07 00:39:39;;;;;;;20.60;17.17;;;12.30;99.90;;;;;;4980246;28;89691;-34
2022/06/07 00:42:05;;;;;;;19.52;15.63;;;12.30;99.90;;;;;;4981013;28;89481;-33
2022/06/07 00:44:37;;;;;;;20.90;18.02;;;12.30;99.90;;;;;;4980093;28;90078;-37
2022/06/07 00:47:18;;;;;;;17.90;15.05;;;12.30;99.90;;;;;;4980503;28;89619;-34
2022/06/07 00:50:16;;;;;;;21.70;15.73;;;12.30;99.90;;;;;;4980459;28;89840;-37
2022/06/07 00:52:41;;;;;;;18.70;15.37;;;12.40;99.90;;;;;;4963755;28;89794;-33
2022/06/07 00:55:17;;;;;;;26.83;15.63;;;12.40;99.90;;;;;;4982279;28;89808;-37
2022/06/07 00:57:44;;;;;;;16.17;14.45;;;12.50;99.90;;;;;;4957215;28;90674;-34
2022/06/07 01:00:13;;;;;;;21.83;15.60;;;12.40;99.90;;;;;;4960687;28;90415;-37
2022/06/07 01:02:39;;;;;;;16.83;14.73;;;12.50;99.90;;;;;;4960001;28;91050;-33
2022/06/07 01:05:05;;;;;;;15.63;13.43;;;12.50;99.90;;;;;;4960579;28;89344;-34
2022/06/07 01:13:00;;;;;;;16.67;14.95;;;12.50;99.90;;;;;;4959887;28;89694;-34
2022/06/07 01:15:25;;;;;;;19.67;15.70;;;12.60;99.90;;;;;;4960724;28;89758;-35
2022/06/07 01:17:51;;;;;;;17.50;15.70;;;12.50;99.90;;;;;;4959947;28;89543;-33
2022/06/07 01:20:17;;;;;;;18.42;16.33;;;12.50;99.90;;;;;;4959602;28;90167;-37
2022/06/07 01:22:42;;;;;;;16.48;13.00;;;12.60;99.90;;;;;;4958641;28;90359;-34
2022/06/07 01:25:09;;;;;;;15.90;14.25;;;12.50;99.90;;;;;;4960050;28;90472;-35
2022/06/07 01:27:34;;;;;;;17.98;15.88;;;12.60;99.90;;;;;;4960282;28;90078;-39
2022/06/07 01:30:00;;;;;;;18.25;15.48;;;12.50;99.90;;;;;;4959160;28;89410;-35
2022/06/07 01:32:26;;;;;;;21.90;15.95;;;12.60;99.90;;;;;;4959275;28;89466;-37
2022/06/07 01:34:53;;;;;;;22.83;17.50;;;12.60;99.90;;;;;;4959577;28;89329;-34
2022/06/07 01:37:19;;;;;;;20.15;16.35;;;12.60;99.90;;;;;;4959877;28;89624;-35
2022/06/07 01:42:29;;;;;;;20.63;16.90;;;12.70;99.90;;;;;;4959278;28;92092;-34
2022/06/07 01:44:56;;;;;;;15.13;13.52;;;12.60;99.90;;;;;;4959364;28;89528;-35
2022/06/07 01:47:28;;;;;;;16.95;13.77;;;12.70;99.90;;;;;;4959508;28;89374;-37
2022/06/07 01:49:54;;;;;;;17.02;14.90;;;12.60;99.90;;;;;;4959346;28;90319;-38
2022/06/07 01:52:22;;;;;;;15.27;13.65;;;12.70;99.90;;;;;;4959879;28;91330;-33
2022/06/07 01:54:48;;;;;;;16.63;14.95;;;12.70;99.90;;;;;;4950947;28;89573;-34
2022/06/07 01:57:14;;;;;;;20.80;14.82;;;12.70;99.90;;;;;;4970266;28;89602;-38
2022/06/07 01:59:40;;;;;;;16.45;14.85;;;12.60;99.90;;;;;;4979404;28;90110;-34
2022/06/07 02:02:07;;;;;;;16.58;13.70;;;12.70;99.90;;;;;;4979022;28;90023;-37
2022/06/07 02:04:36;;;;;;;15.70;13.98;;;12.70;99.90;;;;;;4979362;28;89561;-35
2022/06/07 02:07:03;;;;;;;16.55;13.88;;;12.70;99.90;;;;;;4979332;28;89467;-36
2022/06/07 02:09:29;;;;;;;13.23;11.80;;;12.70;99.90;;;;;;4979259;28;89979;-35
2022/06/07 02:11:54;;;;;;;19.27;15.95;;;12.60;99.90;;;;;;4977826;28;90654;-34
2022/06/07 02:14:20;;;;;;;21.83;14.18;;;12.70;99.90;;;;;;4977971;28;90990;-37
2022/06/07 02:16:46;;;;;;;15.93;12.77;;;12.60;99.90;;;;;;4978747;28;88458;-37
2022/06/07 02:19:12;;;;;;;16.10;14.20;;;12.60;99.90;;;;;;4979122;28;90269;-35
2022/06/07 02:21:39;;;;;;;15.10;12.82;;;12.70;99.90;;;;;;4978698;28;89181;-36
2022/06/07 02:24:06;;;;;;;15.80;14.15;;;12.70;99.90;;;;;;4978814;28;89708;-33
2022/06/07 02:26:40;;;;;;;18.90;14.87;;;12.70;99.90;;;;;;4978677;28;88903;-35
2022/06/07 02:29:13;;;;;;;18.73;13.35;;;12.70;99.90;;;;;;4979605;28;89281;-37
2022/06/07 02:31:43;;;;;;;17.35;12.93;;;12.70;99.90;;;;;;4978850;28;88748;-35
2022/06/07 02:34:10;;;;;;;18.13;14.45;;;12.70;99.90;;;;;;4978432;28;89663;-35
2022/06/07 02:36:36;;;;;;;14.68;13.23;;;12.70;99.90;;;;;;4978216;28;90145;-34
2022/06/07 02:39:03;;;;;;;16.02;14.35;;;12.60;99.90;;;;;;4978375;28;90280;-36
2022/06/07 02:41:31;;;;;;;16.45;14.82;;;12.70;99.90;;;;;;4979066;28;90104;-34
2022/06/07 02:43:57;;;;;;;20.48;14.77;;;12.70;99.90;;;;;;4978825;28;89685;-37
2022/06/07 02:46:22;;;;;;;19.25;14.43;;;12.70;99.90;;;;;;4977868;28;89742;-36
2022/06/07 02:48:48;;;;;;;18.73;14.73;;;12.70;99.90;;;;;;4978388;28;90441;-36
2022/06/07 02:51:14;;;;;;;13.38;11.27;;;12.70;99.90;;;;;;4975958;28;89696;-35
2022/06/07 02:53:40;;;;;;;15.07;10.82;;;12.70;99.90;;;;;;4959584;28;89624;-35
2022/06/07 02:56:05;;;;;;;17.63;12.80;;;12.70;99.90;;;;;;4962055;28;88740;-36
2022/06/07 02:58:32;;;;;;;14.88;13.38;;;12.70;99.90;;;;;;4971099;28;90145;-34
2022/06/07 03:00:58;;;;;;;17.58;13.80;;;12.70;99.90;;;;;;4965661;28;90778;-38
2022/06/07 03:03:25;;;;;;;17.48;14.05;;;12.70;99.90;;;;;;4976527;28;90148;-33
2022/06/07 03:05:51;;;;;;;17.88;13.27;;;12.70;99.90;;;;;;4978707;28;89814;-34
2022/06/07 03:08:18;;;;;;;16.95;13.07;;;12.70;99.90;;;;;;4976269;28;90408;-37
2022/06/07 03:10:45;;;;;;;16.50;14.80;;;12.70;99.90;;;;;;4966916;28;89732;-36
2022/06/07 03:13:12;;;;;;;15.25;13.65;;;12.70;99.90;;;;;;4977822;28;89683;-35
2022/06/07 03:15:39;;;;;;;16.48;14.65;;;12.80;99.90;;;;;;4978331;28;88050;-33
2022/06/07 03:18:04;;;;;;;18.25;15.88;;;12.80;99.90;;;;;;4978654;28;90255;-36
2022/06/07 03:20:30;;;;;;;15.95;13.80;;;12.80;99.90;;;;;;4977782;28;89676;-37
2022/06/07 03:22:56;;;;;;;16.90;14.13;;;12.70;99.90;;;;;;4977811;28;89754;-36
2022/06/07 03:25:23;;;;;;;18.95;14.43;;;12.70;99.90;;;;;;4976236;28;90611;-36
2022/06/07 03:27:48;;;;;;;17.60;15.65;;;12.70;99.90;;;;;;4969592;28;90505;-36
2022/06/07 03:30:14;;;;;;;16.67;13.77;;;12.70;99.90;;;;;;4981915;28;89889;-35
2022/06/07 03:32:40;;;;;;;18.75;15.25;;;12.70;99.90;;;;;;4980712;28;89474;-34
2022/06/07 03:35:06;;;;;;;18.17;14.77;;;12.70;99.90;;;;;;4981526;28;90011;-34
2022/06/07 03:37:31;;;;;;;18.02;15.85;;;12.70;99.90;;;;;;4981936;28;89230;-32
2022/06/07 03:39:57;;;;;;;19.02;15.85;;;12.70;99.90;;;;;;4981058;28;89519;-33
2022/06/07 03:42:23;;;;;;;16.73;14.55;;;12.80;99.90;;;;;;4982092;28;90771;-34
2022/06/07 03:44:50;;;;;;;21.42;14.93;;;12.80;99.90;;;;;;4980414;28;88286;-34
2022/06/07 03:47:17;;;;;;;22.15;16.83;;;12.80;99.90;;;;;;4980966;28;90240;-36
2022/06/07 03:49:42;;;;;;;16.35;14.48;;;12.70;99.90;;;;;;4981093;28;91025;-33
2022/06/07 03:52:08;;;;;;;17.58;15.32;;;12.70;99.90;;;;;;4981247;28;90331;-32
2022/06/07 03:54:34;;;;;;;20.27;13.85;;;12.70;99.90;;;;;;4981475;28;89403;-34
2022/06/07 03:56:59;;;;;;;20.23;15.73;;;12.80;99.90;;;;;;4980786;28;90259;-33
2022/06/07 03:59:27;;;;;;;16.08;14.25;;;12.70;99.90;;;;;;4979375;28;89432;-34
2022/06/07 04:01:53;;;;;;;18.13;16.10;;;12.70;99.90;;;;;;4983771;28;89662;-34
2022/06/07 04:04:19;;;;;;;22.45;15.70;;;12.80;99.90;;;;;;4981271;28;89269;-35
2022/06/07 04:09:39;;;;;;;14.90;13.45;;;12.80;99.90;;;;;;4981459;28;89843;-40
2022/06/07 04:12:09;;;;;;;15.57;14.07;;;12.80;99.90;;;;;;4980697;28;89335;-35
2022/06/07 04:14:37;;;;;;;18.77;16.77;;;12.80;99.90;;;;;;4979890;28;89895;-35
2022/06/07 04:17:03;;;;;;;15.47;13.87;;;12.80;99.90;;;;;;4980583;28;90434;-36
2022/06/07 04:19:28;;;;;;;17.83;14.98;;;12.80;99.90;;;;;;4981103;28;89652;-36
2022/06/07 04:21:54;;;;;;;18.67;16.27;;;12.80;99.90;;;;;;4980483;28;89880;-39
2022/06/07 04:24:20;;;;;;;23.10;15.88;;;12.90;99.90;;;;;;4981243;28;89462;-36
2022/06/07 04:26:47;;;;;;;16.70;13.30;;;12.80;99.90;;;;;;4980158;28;90696;-35
2022/06/07 04:29:13;;;;;;;19.80;14.48;;;12.90;99.90;;;;;;4963046;28;89733;-35
2022/06/07 04:31:39;;;;;;;22.33;17.75;;;12.90;99.90;;;;;;4980831;28;90081;-38
2022/06/07 04:34:05;;;;;;;18.17;14.43;;;12.90;99.90;;;;;;4980770;28;89481;-33
2022/06/07 04:36:31;;;;;;;19.92;13.60;;;13.00;99.90;;;;;;4979650;28;90302;-34
2022/06/07 04:38:57;;;;;;;19.73;14.95;;;12.90;99.90;;;;;;4978977;28;90512;-36
2022/06/07 04:41:23;;;;;;;17.13;14.80;;;13.00;99.90;;;;;;4980070;28;90761;-35
2022/06/07 04:43:50;;;;;;;20.20;15.65;;;12.90;99.90;;;;;;4980344;28;89762;-35
2022/06/07 04:46:16;;;;;;;29.23;15.52;;;12.90;99.90;;;;;;4980692;28;88845;-37
2022/06/07 04:48:44;;;;;;;18.70;16.67;;;13.00;99.90;;;;;;4980002;28;88554;-33
2022/06/07 04:51:15;;;;;;;17.80;14.13;;;13.10;99.90;;;;;;4980103;28;89282;-35
2022/06/07 04:53:41;;;;;;;16.10;14.00;;;13.00;99.90;;;;;;4979061;28;88561;-33
2022/06/07 04:56:08;;;;;;;15.90;13.07;;;13.00;99.90;;;;;;4980281;28;90192;-34
2022/06/07 04:58:34;;;;;;;21.15;15.07;;;13.00;99.90;;;;;;4980924;28;89100;-33
2022/06/07 05:01:00;;;;;;;15.93;12.88;;;13.00;99.90;;;;;;4966127;28;89342;-35
2022/06/07 05:03:25;;;;;;;16.15;14.25;;;13.00;99.90;;;;;;4980877;28;90034;-35
2022/06/07 05:05:51;;;;;;;18.55;14.57;;;13.00;99.90;;;;;;4977309;28;90242;-34
2022/06/07 05:08:17;;;;;;;17.38;14.32;;;13.00;99.90;;;;;;4973970;28;91403;-36
2022/06/07 05:10:43;;;;;;;20.90;14.10;;;13.00;99.90;;;;;;4960418;28;90347;-34
2022/06/07 05:13:09;;;;;;;17.98;14.95;;;13.00;99.90;;;;;;4960135;28;89412;-33
2022/06/07 05:15:34;;;;;;;20.80;14.95;;;13.00;99.90;;;;;;4959983;28;91209;-35
2022/06/07 05:18:00;;;;;;;22.75;16.13;;;13.00;99.90;;;;;;4969655;28;89619;-33
2022/06/07 05:20:26;;;;;;;16.85;14.23;;;13.10;99.90;;;;;;4960324;28;89505;-37
2022/06/07 05:22:52;;;;;;;25.13;15.38;;;13.10;99.90;;;;;;4960355;28;88361;-34
2022/06/07 05:25:18;;;;;;;21.55;15.65;;;13.10;99.90;;;;;;4959803;28;90381;-34
2022/06/07 05:27:47;;;;;;;16.77;14.30;;;13.10;99.90;;;;;;4959018;28;90612;-34
2022/06/07 05:30:15;;;;;;;17.05;13.35;;;13.10;99.90;;;;;;4960198;28;90524;-33
2022/06/07 05:32:40;;;;;;;19.20;15.77;;;13.10;99.90;;;;;;4959619;28;88994;-34
2022/06/07 05:35:06;;;;;;;19.65;15.82;;;13.20;99.90;;;;;;4959360;28;89754;-36
2022/06/07 05:37:34;;;;;;;21.55;14.55;;;13.10;99.90;;;;;;4959989;28;89540;-35
2022/06/07 05:40:02;;;;;;;23.92;14.93;;;13.10;99.90;;;;;;4959659;28;89998;-34
2022/06/07 05:42:28;;;;;;;20.88;14.82;;;13.20;99.90;;;;;;4959522;28;89416;-34
2022/06/07 05:44:54;;;;;;;19.83;15.02;;;13.10;99.90;;;;;;4959398;28;89155;-35
2022/06/07 05:47:20;;;;;;;19.05;15.20;;;13.10;99.90;;;;;;4959092;28;90801;-35
2022/06/07 05:49:45;;;;;;;18.00;15.30;;;13.10;99.90;;;;;;4957863;28;89609;-35
2022/06/07 05:52:11;;;;;;;16.05;13.75;;;13.10;99.90;;;;;;4958860;28;89829;-38
2022/06/07 05:54:38;;;;;;;14.65;12.80;;;13.10;99.90;;;;;;4962433;28;89975;-35
2022/06/07 05:57:05;;;;;;;15.40;13.25;;;13.10;99.90;;;;;;4956954;28;89831;-38
2022/06/07 05:59:31;;;;;;;15.20;13.43;;;13.20;99.90;;;;;;4957386;28;89250;-33
2022/06/07 06:01:57;;;;;;;17.05;14.20;;;13.10;99.90;;;;;;4965246;28;89726;-35
2022/06/07 06:04:25;;;;;;;20.92;14.68;;;13.10;99.90;;;;;;4977187;28;89866;-35
2022/06/07 06:06:54;;;;;;;13.95;12.43;;;13.20;99.90;;;;;;4977180;28;89526;-36
2022/06/07 06:12:04;;;;;;;21.13;13.70;;;13.10;99.90;;;;;;4977176;28;88573;-35
2022/06/07 06:14:30;;;;;;;16.60;14.55;;;13.20;99.90;;;;;;4977670;28;90487;-34
2022/06/07 06:16:56;;;;;;;14.80;13.23;;;13.20;99.90;;;;;;4976534;28;90248;-35
2022/06/07 06:19:21;;;;;;;14.00;12.50;;;13.20;99.90;;;;;;4976910;28;90275;-38
2022/06/07 06:21:47;;;;;;;18.27;14.38;;;13.20;99.90;;;;;;4977390;28;88949;-34
2022/06/07 06:24:15;;;;;;;15.80;14.05;;;13.20;99.90;;;;;;4976696;28;90489;-35
2022/06/07 06:26:42;;;;;;;16.13;14.38;;;13.20;99.90;;;;;;4976412;28;89311;-35
2022/06/07 06:29:09;;;;;;;20.92;13.43;;;13.20;99.90;;;;;;4976703;28;89397;-34
2022/06/07 06:31:36;;;;;;;16.80;13.43;;;13.20;99.90;;;;;;4976787;28;88234;-37
2022/06/07 06:34:02;;;;;;;16.02;12.82;;;13.10;99.90;;;;;;4978188;28;90129;-35
2022/06/07 06:36:29;;;;;;;18.17;14.93;;;13.10;99.90;;;;;;4978145;28;87903;-35
2022/06/07 06:38:55;;;;;;;19.37;15.10;;;13.20;99.90;;;;;;4978243;28;90205;-34
2022/06/07 06:41:30;;;;;;;22.35;14.05;;;13.20;99.90;;;;;;4977388;28;90632;-33
2022/06/07 06:43:58;;;;;;;17.70;13.98;;;13.10;99.90;;;;;;4959140;28;90146;-35
2022/06/07 06:46:30;;;;;;;16.30;13.75;;;13.10;99.90;;;;;;4956950;28;90551;-35
2022/06/07 06:48:56;;;;;;;18.63;14.45;;;13.20;99.90;;;;;;4956704;28;89535;-37
2022/06/07 06:51:26;;;;;;;17.00;13.30;;;13.20;99.90;;;;;;4957122;28;89404;-33
2022/06/07 06:53:55;;;;;;;15.55;13.23;;;13.20;99.90;;;;;;4956197;28;91573;-35
2022/06/07 06:56:22;;;;;;;18.40;14.30;;;13.20;99.90;;;;;;4957123;28;89620;-33
2022/06/07 06:58:49;;;;;;;17.67;15.07;;;13.20;99.90;;;;;;4958153;28;90223;-39
2022/06/07 07:01:18;;;;;;;22.75;15.43;;;13.10;99.90;;;;;;4962592;28;88858;-36
2022/06/07 07:03:44;;;;;;;16.10;14.40;;;13.10;99.90;;;;;;4976895;28;90173;-34
2022/06/07 07:06:12;;;;;;;18.20;14.90;;;13.00;99.90;;;;;;4975233;28;90754;-36
2022/06/07 07:08:40;;;;;;;24.00;16.50;;;12.90;99.90;;;;;;4975715;28;90541;-35
2022/06/07 07:11:17;;;;;;;17.63;15.80;;;12.90;99.90;;;;;;4976793;28;88173;-34
2022/06/07 07:13:44;;;;;;;17.83;14.97;;;12.90;99.90;;;;;;4975967;28;88594;-38
2022/06/07 07:16:13;;;;;;;19.38;15.02;;;12.80;99.90;;;;;;4976713;28;90160;-34
2022/06/07 07:18:39;;;;;;;15.23;11.57;;;12.90;99.90;;;;;;4976021;28;89158;-33
2022/06/07 07:21:07;;;;;;;17.90;14.82;;;12.70;99.90;;;;;;4975852;28;90232;-34
2022/06/07 07:23:33;;;;;;;15.45;13.90;;;12.70;99.90;;;;;;4976326;28;89006;-37
2022/06/07 07:26:12;;;;;;;14.02;12.32;;;12.70;99.90;;;;;;4976217;28;89617;-34
2022/06/07 07:28:40;;;;;;;15.05;13.45;;;12.80;99.90;;;;;;4976495;28;90093;-36
2022/06/07 07:31:08;;;;;;;15.95;14.30;;;12.80;99.90;;;;;;4975722;28;90030;-36
2022/06/07 07:33:34;;;;;;;19.42;14.82;;;12.90;99.90;;;;;;4975530;28;88962;-36
2022/06/07 07:36:02;;;;;;;17.10;13.98;;;13.00;99.90;;;;;;4976241;28;90093;-34
2022/06/07 07:38:28;;;;;;;15.93;13.57;;;13.00;99.90;;;;;;4976111;28;89935;-33
2022/06/07 07:40:53;;;;;;;18.48;14.00;;;13.10;99.90;;;;;;4975869;28;88339;-32
2022/06/07 07:43:19;;;;;;;15.85;14.20;;;13.10;99.90;;;;;;4976512;28;90901;-36
2022/06/07 07:45:46;;;;;;;14.95;13.35;;;13.20;99.90;;;;;;4975220;28;89834;-36
2022/06/07 07:48:12;;;;;;;18.02;15.00;;;13.20;99.90;;;;;;4975920;28;89783;-37
2022/06/07 07:50:38;;;;;;;17.80;14.18;;;13.20;99.90;;;;;;4976192;28;90489;-34
2022/06/07 07:53:05;;;;;;;16.05;12.27;;;13.20;99.90;;;;;;4976008;28;89134;-35
2022/06/07 07:55:31;;;;;;;16.48;13.23;;;13.10;99.90;;;;;;4974264;28;90632;-35
2022/06/07 07:57:57;;;;;;;17.00;12.45;;;13.20;99.90;;;;;;4975529;28;90997;-34
2022/06/07 08:00:23;;;;;;;18.10;13.10;;;13.10;99.90;;;;;;4965945;28;88115;-35
2022/06/07 08:02:49;;;;;;;15.15;12.40;;;13.10;99.90;;;;;;4966678;28;90312;-37
2022/06/07 08:05:14;;;;;;;14.15;11.18;;;13.10;99.90;;;;;;4966968;28;89786;-38
2022/06/07 08:07:40;;;;;;;23.05;12.10;;;13.00;99.90;;;;;;4974774;28;90261;-36
2022/06/07 08:10:06;;;;;;;12.95;10.00;;;13.00;99.90;;;;;;4975875;28;89328;-33
2022/06/07 08:12:32;;;;;;;11.82;10.18;;;12.90;99.90;;;;;;4975921;28;90157;-35
2022/06/07 08:14:59;;;;;;;10.93;9.82;;;13.00;99.90;;;;;;4957132;28;89684;-34
2022/06/07 08:17:26;;;;;;;12.02;10.23;;;13.10;99.90;;;;;;4972897;28;89818;-33
2022/06/07 08:19:52;;;;;;;13.90;9.82;;;13.10;99.90;;;;;;4977348;28;89294;-37
2022/06/07 08:22:19;;;;;;;20.38;9.88;;;13.10;99.90;;;;;;4979186;28;89768;-36
2022/06/07 08:24:45;;;;;;;17.00;9.57;;;13.20;99.90;;;;;;4979142;28;89812;-37
2022/06/07 08:27:11;;;;;;;15.57;9.48;;;13.20;99.90;;;;;;4978773;28;90181;-35
2022/06/07 08:29:38;;;;;;;10.00;8.43;;;13.30;99.90;;;;;;4979490;28;89767;-34
2022/06/07 08:32:04;;;;;;;13.48;8.63;;;13.30;99.90;;;;;;4979768;28;90416;-36
2022/06/07 08:37:34;;;;;;;11.73;7.22;;;13.40;99.90;;;;;;4956719;28;89749;-34
2022/06/07 08:40:23;;;;;;;12.77;9.43;;;13.30;99.90;;;;;;4958310;28;88458;-34
2022/06/07 08:42:53;;;;;;;15.38;9.65;;;13.40;99.90;;;;;;4979372;28;90363;-33
2022/06/07 08:45:30;;;;;;;10.52;9.43;;;13.40;99.90;;;;;;4977815;28;90831;-36
2022/06/07 08:48:00;;;;;;;16.30;9.00;;;13.30;99.90;;;;;;4978656;28;91596;-35
2022/06/07 08:50:30;;;;;;;13.13;9.43;;;13.30;99.90;;;;;;4978876;28;88447;-35
2022/06/07 08:53:16;;;;;;;11.20;8.73;;;13.30;99.90;;;;;;4978590;28;90552;-35
2022/06/07 08:55:49;;;;;;;20.17;8.68;;;13.30;99.90;;;;;;4977652;28;89586;-36
2022/06/07 08:58:18;;;;;;;16.83;9.10;;;13.30;99.90;;;;;;4979432;28;89729;-34
2022/06/07 09:00:48;;;;;;;13.57;9.40;;;13.30;99.90;;;;;;4966752;28;88111;-34
2022/06/07 09:03:32;;;;;;;11.75;9.90;;;13.40;99.90;;;;;;4978119;28;91148;-36
2022/06/07 09:06:01;;;;;;;13.40;9.70;;;13.30;99.90;;;;;;4964420;28;89659;-36
2022/06/07 09:08:38;;;;;;;20.10;9.95;;;13.30;99.90;;;;;;4958136;28;90446;-34
2022/06/07 09:13:53;;;;;;;15.55;10.55;;;13.30;99.90;;;;;;4977833;28;90121;-34
2022/06/07 09:16:19;;;;;;;13.25;11.00;;;13.30;99.90;;;;;;4978007;28;90107;-36
2022/06/07 09:18:45;;;;;;;16.48;10.80;;;13.30;99.90;;;;;;4977550;28;89551;-35
2022/06/07 09:21:30;;;;;;;15.98;8.90;;;13.40;99.90;;;;;;4976071;28;89860;-36
2022/06/07 09:23:56;;;;;;;11.38;10.18;;;13.40;99.90;;;;;;4955788;28;91612;-34
2022/06/07 09:26:30;;;;;;;12.27;9.85;;;13.50;99.90;;;;;;4957975;28;89337;-36
2022/06/07 09:29:19;;;;;;;15.23;10.13;;;13.50;99.90;;;;;;4977917;28;90460;-34
2022/06/07 09:31:46;;;;;;;16.30;11.43;;;13.60;99.90;;;;;;4977525;28;87556;-35
2022/06/07 09:34:25;;;;;;;16.45;10.88;;;13.60;99.90;;;;;;4977055;28;90293;-35
2022/06/07 09:36:57;;;;;;;12.57;9.57;;;13.60;99.90;;;;;;4976029;28;90717;-36
2022/06/07 09:39:34;;;;;;;12.88;11.38;;;13.50;99.90;;;;;;4978809;28;90496;-33
2022/06/07 09:42:22;;;;;;;16.92;11.30;;;13.40;99.90;;;;;;4971207;28;89603;-36
2022/06/07 09:45:11;;;;;;;14.23;10.60;;;13.40;99.90;;;;;;4960501;28;90223;-35
2022/06/07 09:47:37;;;;;;;20.00;12.48;;;13.30;99.90;;;;;;4956819;28;89572;-34
2022/06/07 09:50:25;;;;;;;10.90;9.77;;;13.30;99.90;;;;;;4957194;28;89639;-39
2022/06/07 09:53:06;;;;;;;12.02;10.82;;;13.30;99.90;;;;;;4978440;28;88253;-33
2022/06/07 09:56:04;;;;;;;17.45;10.70;;;13.40;99.90;;;;;;4976226;28;89934;-33
2022/06/07 09:58:54;;;;;;;16.73;12.18;;;13.50;99.90;;;;;;4976922;28;89875;-35
2022/06/07 10:01:35;;;;;;;16.75;11.40;;;13.70;99.90;;;;;;4963227;28;91366;-34
2022/06/07 10:04:07;;;;;;;10.70;9.18;;;13.70;99.90;;;;;;4976954;28;89933;-33
2022/06/07 10:06:36;;;;;;;13.13;10.70;;;13.80;99.90;;;;;;4978113;28;90958;-36
2022/06/07 10:09:27;;;;;;;11.10;9.93;;;13.90;99.90;;;;;;4976630;28;89789;-34
2022/06/07 10:12:06;;;;;;;17.25;10.80;;;14.00;99.90;;;;;;4977429;28;89898;-38
2022/06/07 10:14:58;;;;;;;14.20;9.98;;;14.00;99.90;;;;;;4976674;28;88893;-36
2022/06/07 10:17:41;;;;;;;14.93;10.35;;;14.00;99.90;;;;;;4966683;28;91301;-36
2022/06/07 10:20:38;;;;;;;12.50;9.07;;;14.10;99.90;;;;;;4977108;28;89566;-36
2022/06/07 10:23:32;;;;;;;10.27;8.35;;;14.10;99.90;;;;;;4977597;28;90221;-38
2022/06/07 10:26:25;;;;;;;19.70;8.77;;;14.10;99.90;;;;;;4977966;28;90010;-35
2022/06/07 10:29:12;;;;;;;11.93;9.85;;;14.10;99.90;;;;;;4977126;28;90306;-35
2022/06/07 10:31:50;;;;;;;9.13;8.13;;;14.20;99.90;;;;;;4945754;28;90195;-34
2022/06/07 10:34:23;;;;;;;7.88;7.15;;;14.20;99.90;;;;;;4977732;28;90572;-34
2022/06/07 10:37:01;;;;;;;13.82;7.55;;;14.10;99.90;;;;;;4975874;28;88992;-35
2022/06/07 10:39:51;;;;;;;14.25;8.30;;;14.20;99.90;;;;;;4976933;28;90345;-37
2022/06/07 10:42:43;;;;;;;9.23;7.00;;;14.20;99.90;;;;;;4976991;28;89138;-34
2022/06/07 10:45:19;;;;;;;7.13;6.53;;;14.20;99.90;;;;;;4977811;28;89547;-33
2022/06/07 10:47:56;;;;;;;12.32;5.68;;;14.30;99.90;;;;;;4964465;28;88700;-33
2022/06/07 10:50:29;;;;;;;7.28;6.57;;;14.40;99.90;;;;;;4976552;28;90620;-39
2022/06/07 10:53:12;;;;;;;10.77;7.47;;;14.40;99.90;;;;;;4976348;28;89915;-34
2022/06/07 10:55:45;;;;;;;10.77;7.15;;;14.60;99.90;;;;;;4976499;28;89716;-33
2022/06/07 10:58:25;;;;;;;6.97;6.28;;;14.50;99.90;;;;;;4976147;28;89779;-35
2022/06/07 11:01:02;;;;;;;10.88;6.80;;;14.40;99.90;;;;;;4957516;28;90126;-36
2022/06/07 11:03:39;;;;;;;7.43;5.57;;;14.40;99.90;;;;;;4976890;28;90299;-36
2022/06/07 11:09:38;;;;;;;8.60;6.15;;;14.20;99.90;;;;;;4976895;28;88806;-34
2022/06/07 11:12:12;;;;;;;8.55;6.25;;;14.20;99.90;;;;;;4963947;28;90059;-36
2022/06/07 11:15:05;;;;;;;16.08;6.97;;;14.30;99.90;;;;;;4976608;28;89780;-37
2022/06/07 11:17:40;;;;;;;14.32;6.35;;;14.30;99.90;;;;;;4972810;28;89861;-34
2022/06/07 11:20:21;;;;;;;10.55;6.30;;;14.40;99.90;;;;;;4976347;28;89634;-36
2022/06/07 11:23:20;;;;;;;9.50;6.40;;;14.30;99.90;;;;;;4965128;28;89767;-35
2022/06/07 11:25:58;;;;;;;9.32;5.88;;;14.20;99.90;;;;;;4955898;28;90761;-34
2022/06/07 11:28:32;;;;;;;13.00;7.57;;;14.10;99.90;;;;;;4956751;28;89729;-36
2022/06/07 11:31:41;;;;;;;9.27;6.93;;;14.10;99.90;;;;;;4942770;28;89674;-34
2022/06/07 11:34:22;;;;;;;19.77;7.95;;;14.00;99.90;;;;;;4975326;28;90949;-36
2022/06/07 11:36:48;;;;;;;12.63;6.35;;;13.90;99.90;;;;;;4973097;28;89281;-36
2022/06/07 11:39:50;;;;;;;9.52;6.78;;;13.80;99.90;;;;;;4968946;28;89055;-36
2022/06/07 11:42:34;;;;;;;10.57;7.25;;;13.70;99.90;;;;;;4956529;28;87711;-36
2022/06/07 11:45:05;;;;;;;8.02;7.07;;;13.70;99.90;;;;;;4956966;28;89924;-33
2022/06/07 11:48:03;;;;;;;9.10;6.35;;;13.60;99.90;;;;;;4958162;28;89780;-35
2022/06/07 11:50:38;;;;;;;16.08;7.03;;;13.70;99.90;;;;;;4957607;28;89923;-37
2022/06/07 11:53:25;;;;;;;9.15;7.85;;;13.70;99.90;;;;;;4959682;28;89451;-34
2022/06/07 11:55:59;;;;;;;11.73;7.90;;;13.80;99.90;;;;;;4977168;28;90422;-35
2022/06/07 11:58:51;;;;;;;12.68;7.63;;;13.90;99.90;;;;;;4962322;28;89468;-36
2022/06/07 12:01:32;;;;;;;7.43;6.50;;;14.00;99.90;;;;;;4962073;28;89003;-34
2022/06/07 12:04:29;;;;;;;9.40;7.85;;;13.90;99.90;;;;;;4979337;28;89474;-33
2022/06/07 12:07:33;;;;;;;19.92;8.27;;;14.00;99.90;;;;;;4978890;28;90144;-37
2022/06/07 12:10:21;;;;;;;13.25;7.60;;;14.10;99.90;;;;;;4979430;28;90139;-36
2022/06/07 12:12:55;;;;;;;11.00;7.60;;;14.10;99.90;;;;;;4979733;28;90128;-38
2022/06/07 12:15:26;;;;;;;13.13;7.95;;;14.10;99.90;;;;;;4965786;28;88299;-37
2022/06/07 12:18:32;;;;;;;9.55;7.80;;;14.10;99.90;;;;;;4978761;28;90085;-34
2022/06/07 12:21:07;;;;;;;10.80;6.82;;;14.10;99.90;;;;;;4968568;28;92376;-35
2022/06/07 12:23:40;;;;;;;10.15;7.13;;;14.20;99.90;;;;;;4979400;28;90757;-35
2022/06/07 12:26:26;;;;;;;10.68;6.10;;;14.30;99.90;;;;;;4979337;28;88837;-35
2022/06/07 12:28:58;;;;;;;12.40;5.55;;;14.30;99.90;;;;;;4978514;28;90451;-35
2022/06/07 12:31:37;;;;;;;5.63;4.60;;;14.40;99.90;;;;;;4979255;28;89972;-33
2022/06/07 12:34:23;;;;;;;14.68;5.90;;;14.50;99.90;;;;;;4979273;28;89613;-36
2022/06/07 12:37:03;;;;;;;7.00;5.10;;;14.40;99.90;;;;;;4978887;28;89202;-37
2022/06/07 12:39:31;;;;;;;6.45;5.90;;;14.30;99.90;;;;;;4978975;28;90786;-36
2022/06/07 12:42:07;;;;;;;7.03;5.60;;;14.50;99.90;;;;;;4978374;28;89876;-39
2022/06/07 12:44:37;;;;;;;10.52;6.07;;;14.40;99.90;;;;;;4979947;28;89552;-34
2022/06/07 12:47:05;;;;;;;11.25;5.10;;;14.30;99.90;;;;;;4980744;28;90432;-36
2022/06/07 12:49:40;;;;;;;9.00;6.10;;;14.40;99.90;;;;;;4980546;28;89536;-36
2022/06/07 12:52:11;;;;;;;8.70;5.97;;;14.30;99.90;;;;;;4966442;28;88294;-36
2022/06/07 12:54:36;;;;;;;10.05;5.70;;;14.40;99.90;;;;;;4964891;28;88952;-36
2022/06/07 12:57:12;;;;;;;5.95;5.38;;;14.50;99.90;;;;;;5024867;22;92187;-36
2022/06/07 12:59:55;;;;;;;12.27;5.95;;;14.60;99.90;;;;;;4996302;28;90584;-34
2022/06/07 13:02:31;;;;;;;10.13;6.13;;;14.80;99.90;;;;;;4978787;28;89662;-36
2022/06/07 13:05:00;;;;;;;6.10;5.32;;;14.90;99.90;;;;;;4978753;28;90067;-33
2022/06/07 13:07:41;;;;;;;9.80;6.07;;;15.10;99.90;;;;;;4979522;28;88692;-36
2022/06/07 13:10:13;;;;;;;5.50;4.97;;;15.30;99.90;;;;;;4978521;28;89161;-35
2022/06/07 13:12:43;;;;;;;6.70;4.85;;;15.30;99.90;;;;;;4973139;28;90431;-36